Time;durP1;ratioP1;P1;durP2;ratioP2;P2;SDS_P1;SDS_P2;PMS_P1;PMS_P2;Temp;Humidity;BMP_temperature;BMP_pressure;BME280_temperature;BME280_humidity;BME280_pressure;Samples;Min_cycle;Max_cycle;Signal;HPM_P1;HPM_P2
2022/12/05 00:00:55;;;;;;;;;;;;;;;11.86;74.07;100977.63;5010988;28;19926;-79
2022/12/05 00:03:39;;;;;;;;;;;;;;;11.92;73.90;100976.38;4995777;28;19922;-81
2022/12/05 00:06:25;;;;;;;;;;;;;;;11.92;73.79;100976.38;5003569;28;19942;-78
2022/12/05 00:09:11;;;;;;;;;;;;;;;11.80;73.83;100970.72;5006410;28;20317;-80
2022/12/05 00:11:56;;;;;;;;;;;;;;;12.03;73.34;100985.03;5010243;28;20322;-80
2022/12/05 00:14:40;;;;;;;;;;;;;;;11.96;73.71;100993.69;5006193;28;19917;-79
2022/12/05 00:17:24;;;;;;;;;;;;;;;12.01;73.13;100995.44;5014046;28;19917;-79
2022/12/05 00:20:09;;;;;;;;;;;;;;;12.00;73.07;100999.28;5001428;28;19921;-77
2022/12/05 00:22:54;;;;;;;;;;;;;;;12.03;73.12;101003.31;5009199;28;19922;-79
2022/12/05 00:25:38;;;;;;;;;;;;;;;12.06;73.27;101008.94;5000622;28;19917;-78
2022/12/05 00:28:22;;;;;;;;;;;;;;;12.02;73.28;101018.88;4995192;28;19917;-77
2022/12/05 00:31:08;;;;;;;;;;;;;;;12.04;73.24;101015.84;5013178;28;19917;-80
2022/12/05 00:33:53;;;;;;;;;;;;;;;12.05;73.74;101011.97;5020862;28;19917;-77
2022/12/05 00:36:38;;;;;;;;;;;;;;;12.07;73.19;101010.53;5002992;28;19943;-78
2022/12/05 00:39:23;;;;;;;;;;;;;;;12.06;73.19;101008.13;5015044;28;19918;-80
2022/12/05 00:42:07;;;;;;;;;;;;;;;12.01;73.26;101009.09;5014346;28;19917;-79
2022/12/05 00:44:52;;;;;;;;;;;;;;;11.98;73.46;101007.00;5004619;28;19921;-77
2022/12/05 00:47:36;;;;;;;;;;;;;;;11.94;72.87;101004.09;5014886;28;19918;-80
2022/12/05 00:50:20;;;;;;;;;;;;;;;11.93;72.93;100999.78;5014710;28;19918;-79
2022/12/05 00:53:05;;;;;;;;;;;;;;;11.90;73.62;100988.69;5030821;28;19918;-78
2022/12/05 00:55:49;;;;;;;;;;;;;;;11.89;73.27;100987.06;4999309;28;19918;-78
2022/12/05 00:58:34;;;;;;;;;;;;;;;11.93;72.34;100988.88;5005425;28;19925;-75
2022/12/05 01:01:24;;;;;;;;;;;;;;;12.11;72.01;100980.72;5013449;28;19918;-79
2022/12/05 01:04:10;;;;;;;;;;;;;;;12.18;71.55;100972.88;5008924;28;19925;-78
2022/12/05 01:06:55;;;;;;;;;;;;;;;12.05;71.94;100966.44;5013572;28;20371;-78
2022/12/05 01:09:40;;;;;;;;;;;;;;;12.00;72.22;100959.22;5017036;28;19917;-78
2022/12/05 01:12:24;;;;;;;;;;;;;;;11.97;71.99;100968.03;5014126;28;19918;-78
2022/12/05 01:15:09;;;;;;;;;;;;;;;11.87;72.46;100957.44;4987358;28;20374;-77
2022/12/05 01:17:54;;;;;;;;;;;;;;;11.85;72.70;100965.13;4997846;28;20391;-79
2022/12/05 01:20:39;;;;;;;;;;;;;;;11.89;72.54;100959.81;4981723;28;19918;-79
2022/12/05 01:23:23;;;;;;;;;;;;;;;11.85;73.76;100958.88;4979708;28;19922;-79
2022/12/05 01:26:09;;;;;;;;;;;;;;;11.80;73.53;100962.53;4999980;28;19917;-78
2022/12/05 01:28:54;;;;;;;;;;;;;;;11.83;74.40;100972.03;4995603;28;19922;-78
2022/12/05 01:31:39;;;;;;;;;;;;;;;11.79;74.13;100971.03;4994261;28;19917;-77
2022/12/05 01:34:24;;;;;;;;;;;;;;;11.75;74.14;100962.69;4984123;28;19917;-78
2022/12/05 01:37:08;;;;;;;;;;;;;;;11.76;73.48;100975.19;5012642;28;19918;-78
2022/12/05 01:39:53;;;;;;;;;;;;;;;11.71;73.21;100975.31;4999737;28;19925;-77
2022/12/05 01:42:38;;;;;;;;;;;;;;;11.76;73.03;100977.94;5003229;28;19917;-77
2022/12/05 01:45:31;;;;;;;;;;;;;;;11.70;73.38;100972.91;5001564;28;19918;-80
2022/12/05 01:48:18;;;;;;;;;;;;;;;11.70;73.44;100970.97;5013742;28;19917;-79
2022/12/05 01:51:03;;;;;;;;;;;;;;;11.60;74.06;100963.09;5005823;28;20081;-79
2022/12/05 01:53:47;;;;;;;;;;;;;;;11.55;74.37;100960.50;5013409;28;19917;-78
2022/12/05 01:56:33;;;;;;;;;;;;;;;11.62;73.85;100960.06;4999073;28;19925;-79
2022/12/05 01:59:20;;;;;;;;;;;;;;;11.48;74.45;100960.16;5004130;28;19917;-78
2022/12/05 02:02:06;;;;;;;;;;;;;;;11.69;73.85;100963.13;5005092;28;19918;-78
2022/12/05 02:04:58;;;;;;;;;;;;;;;11.61;74.45;100966.63;4999558;28;20379;-79
2022/12/05 02:07:43;;;;;;;;;;;;;;;11.81;74.01;100963.34;5002415;28;19918;-81
2022/12/05 02:10:29;;;;;;;;;;;;;;;11.93;73.37;100964.34;4992892;28;19918;-77
2022/12/05 02:13:32;;;;;;;;;;;;;;;11.96;73.10;100955.53;4997183;28;19917;-77
2022/12/05 02:16:17;;;;;;;;;;;;;;;11.93;73.18;100949.91;5033519;28;19917;-78
2022/12/05 02:19:16;;;;;;;;;;;;;;;11.98;73.02;100958.75;5000130;28;19917;-80
2022/12/05 02:22:10;;;;;;;;;;;;;;;11.83;73.93;100967.38;5011784;28;19917;-79
2022/12/05 02:24:58;;;;;;;;;;;;;;;11.88;73.77;100969.16;5001018;28;19921;-80
2022/12/05 02:27:55;;;;;;;;;;;;;;;11.90;73.46;100973.16;5004756;28;20302;-77
2022/12/05 02:30:42;;;;;;;;;;;;;;;11.89;73.32;100968.81;5002752;28;19922;-78
2022/12/05 02:33:44;;;;;;;;;;;;;;;11.93;73.16;100964.34;4999530;28;20306;-79
2022/12/05 02:36:28;;;;;;;;;;;;;;;11.83;73.66;100972.81;5003923;28;19917;-80
2022/12/05 02:39:16;;;;;;;;;;;;;;;11.81;73.39;100974.25;5001151;28;19917;-79
2022/12/05 02:42:20;;;;;;;;;;;;;;;11.73;73.68;100973.13;4999390;28;20314;-79
2022/12/05 02:45:11;;;;;;;;;;;;;;;11.78;73.61;100967.53;5012816;28;19921;-80
2022/12/05 02:47:56;;;;;;;;;;;;;;;11.88;73.54;100969.94;5004869;28;19917;-80
2022/12/05 02:50:42;;;;;;;;;;;;;;;11.86;73.11;100961.28;4997252;28;19917;-80
2022/12/05 02:53:28;;;;;;;;;;;;;;;11.86;73.33;100963.19;4994727;28;19921;-81
2022/12/05 02:56:13;;;;;;;;;;;;;;;11.83;73.23;100970.09;5012868;28;19921;-79
2022/12/05 02:58:59;;;;;;;;;;;;;;;11.78;73.21;100981.16;4999007;28;19918;-82
2022/12/05 03:01:45;;;;;;;;;;;;;;;11.82;73.50;100976.66;5012367;28;19917;-80
2022/12/05 03:04:30;;;;;;;;;;;;;;;11.87;73.36;100978.44;5012689;28;19925;-80
2022/12/05 03:07:16;;;;;;;;;;;;;;;11.80;73.51;100978.91;5012625;28;20382;-81
2022/12/05 03:10:03;;;;;;;;;;;;;;;11.73;73.78;100975.84;5002216;28;19917;-82
2022/12/05 03:12:55;;;;;;;;;;;;;;;11.81;73.48;100969.59;5000203;28;19917;-80
2022/12/05 03:15:51;;;;;;;;;;;;;;;11.87;73.62;100968.34;5012454;28;19921;-81
2022/12/05 03:18:38;;;;;;;;;;;;;;;11.91;73.44;100968.50;5012861;28;19918;-82
2022/12/05 03:21:28;;;;;;;;;;;;;;;11.86;73.43;100971.38;4999391;28;19918;-80
2022/12/05 03:24:13;;;;;;;;;;;;;;;11.88;73.21;100980.03;4997626;28;19925;-82
2022/12/05 03:26:57;;;;;;;;;;;;;;;11.72;73.48;100970.66;5001790;28;19918;-82
2022/12/05 03:29:50;;;;;;;;;;;;;;;11.66;74.21;100972.75;4999891;28;20334;-81
2022/12/05 03:35:56;;;;;;;;;;;;;;;11.60;74.60;100976.72;4983340;28;19927;-78
2022/12/05 03:38:46;;;;;;;;;;;;;;;11.64;74.81;100980.41;4978764;28;19918;-80
2022/12/05 03:41:34;;;;;;;;;;;;;;;11.69;74.22;100987.63;4979266;28;19918;-79
2022/12/05 03:44:23;;;;;;;;;;;;;;;11.67;74.30;100985.25;4991607;28;19925;-79
2022/12/05 03:47:14;;;;;;;;;;;;;;;11.69;74.21;100983.00;4991398;28;19922;-79
2022/12/05 03:50:02;;;;;;;;;;;;;;;11.61;74.16;100975.59;4997275;28;19922;-79
2022/12/05 03:52:53;;;;;;;;;;;;;;;11.61;74.39;100975.59;4990816;28;19922;-79
2022/12/05 03:55:40;;;;;;;;;;;;;;;11.59;74.63;100975.09;4985561;28;19922;-79
2022/12/05 03:58:31;;;;;;;;;;;;;;;11.61;74.55;100970.16;4992979;28;20406;-79
2022/12/05 04:01:18;;;;;;;;;;;;;;;11.63;74.36;100970.63;4988810;28;19918;-79
2022/12/05 04:04:07;;;;;;;;;;;;;;;11.74;73.98;100963.81;4987385;28;19922;-80
2022/12/05 04:06:57;;;;;;;;;;;;;;;11.74;74.21;100954.81;4984601;28;20441;-79
2022/12/05 04:09:45;;;;;;;;;;;;;;;11.83;73.89;100952.94;4983045;28;19918;-79
2022/12/05 04:12:32;;;;;;;;;;;;;;;11.73;74.17;100940.44;4984537;28;19919;-79
2022/12/05 04:15:21;;;;;;;;;;;;;;;11.69;74.29;100933.94;4989677;28;19921;-80
2022/12/05 04:18:07;;;;;;;;;;;;;;;11.64;74.27;100939.56;4992844;28;19918;-79
2022/12/05 04:25:31;;;;;;;;;;;;;;;11.57;74.61;100944.69;4984583;28;19922;-78
2022/12/05 04:27:20;;;;;;;;;;;;;;;11.53;74.54;100949.94;4976649;28;19917;-79
2022/12/05 04:30:04;;;;;;;;;;;;;;;11.54;74.04;100939.84;4989545;28;19918;-80
2022/12/05 04:33:08;;;;;;;;;;;;;;;11.44;74.94;100938.22;4988154;28;19922;-80
2022/12/05 04:35:54;;;;;;;;;;;;;;;11.37;75.23;100937.88;4979733;28;19918;-80
2022/12/05 04:38:47;;;;;;;;;;;;;;;11.29;74.70;100946.81;4991801;28;19922;-80
2022/12/05 04:41:37;;;;;;;;;;;;;;;11.44;75.33;100948.31;4987282;28;19918;-79
2022/12/05 04:44:24;;;;;;;;;;;;;;;11.42;75.42;100948.63;4985534;28;19922;-80
2022/12/05 04:47:11;;;;;;;;;;;;;;;11.46;75.30;100952.31;4988111;28;19922;-80
2022/12/05 04:49:57;;;;;;;;;;;;;;;11.49;74.43;100942.72;4989346;28;20391;-80
2022/12/05 04:52:45;;;;;;;;;;;;;;;11.44;74.58;100938.22;4991573;28;19917;-79
2022/12/05 04:55:31;;;;;;;;;;;;;;;11.37;75.66;100937.09;4971831;28;19919;-80
2022/12/05 04:58:18;;;;;;;;;;;;;;;11.38;75.27;100939.47;4986085;28;19918;-80
2022/12/05 05:01:06;;;;;;;;;;;;;;;11.33;75.20;100942.34;4989205;28;19918;-80
2022/12/05 05:03:57;;;;;;;;;;;;;;;11.23;75.54;100944.53;4989820;28;19922;-80
2022/12/05 05:06:41;;;;;;;;;;;;;;;11.34;75.33;100951.31;4989006;28;19922;-79
2022/12/05 05:09:26;;;;;;;;;;;;;;;11.31;75.65;100949.22;4991096;28;19918;-79
2022/12/05 05:12:11;;;;;;;;;;;;;;;11.27;75.92;100959.13;4990204;28;20379;-79
2022/12/05 05:14:55;;;;;;;;;;;;;;;11.36;76.33;100957.25;4988426;28;19918;-80
2022/12/05 05:17:40;;;;;;;;;;;;;;;11.34;76.07;100951.31;4991356;28;19919;-79
2022/12/05 05:20:25;;;;;;;;;;;;;;;11.30;75.99;100958.50;4989172;28;19922;-79
2022/12/05 05:23:10;;;;;;;;;;;;;;;11.25;75.94;100961.34;4985060;28;19918;-80
2022/12/05 05:25:55;;;;;;;;;;;;;;;11.23;76.47;100952.69;4978017;28;20306;-80
2022/12/05 05:28:40;;;;;;;;;;;;;;;11.23;76.23;100956.22;4987313;28;19918;-80
2022/12/05 05:31:24;;;;;;;;;;;;;;;11.19;76.63;100957.16;4986274;28;19918;-79
2022/12/05 05:34:10;;;;;;;;;;;;;;;11.18;77.09;100961.81;4979354;28;19926;-79
2022/12/05 05:36:55;;;;;;;;;;;;;;;11.27;76.67;100970.03;4982490;28;19918;-80
2022/12/05 05:39:39;;;;;;;;;;;;;;;11.38;75.90;100968.63;4985392;28;19922;-80
2022/12/05 05:42:23;;;;;;;;;;;;;;;11.42;75.68;100972.34;4989856;28;19918;-79
2022/12/05 05:45:08;;;;;;;;;;;;;;;11.47;75.33;100975.72;4976275;28;20391;-79
2022/12/05 05:47:53;;;;;;;;;;;;;;;11.55;76.62;100972.22;4981321;28;19922;-80
2022/12/05 05:50:37;;;;;;;;;;;;;;;11.88;75.58;100971.88;4983434;28;20383;-80
2022/12/05 05:53:28;;;;;;;;;;;;;;;12.75;77.27;100977.03;4975163;28;19918;-80
2022/12/05 05:56:17;;;;;;;;;;;;;;;12.91;72.11;100973.78;4966134;28;19918;-80
2022/12/05 05:59:02;;;;;;;;;;;;;;;13.05;71.70;100969.75;4979373;28;19918;-81
2022/12/05 06:01:47;;;;;;;;;;;;;;;13.63;72.72;100977.28;4971513;28;20376;-80
2022/12/05 06:04:33;;;;;;;;;;;;;;;13.80;69.83;100976.38;4974054;28;19923;-80
2022/12/05 06:07:17;;;;;;;;;;;;;;;13.86;70.51;100975.06;4973980;28;19918;-82
2022/12/05 06:10:02;;;;;;;;;;;;;;;13.99;67.64;100971.28;4977449;28;19918;-79
2022/12/05 06:12:47;;;;;;;;;;;;;;;13.77;67.65;100968.03;4973738;28;20287;-80
2022/12/05 06:15:31;;;;;;;;;;;;;;;13.45;67.04;100973.03;4982666;28;20302;-79
2022/12/05 06:18:16;;;;;;;;;;;;;;;13.15;67.33;100977.63;4971897;28;19926;-79
2022/12/05 06:21:01;;;;;;;;;;;;;;;12.69;69.29;100975.59;4969340;28;19922;-80
2022/12/05 06:23:46;;;;;;;;;;;;;;;12.62;69.84;100978.00;4976318;28;19926;-80
2022/12/05 06:26:31;;;;;;;;;;;;;;;13.10;71.83;100972.31;4974874;28;19926;-80
2022/12/05 06:29:15;;;;;;;;;;;;;;;13.42;70.18;100972.84;4985600;28;20302;-81
2022/12/05 06:32:00;;;;;;;;;;;;;;;13.85;65.95;100968.00;4963933;28;20387;-80
2022/12/05 06:34:44;;;;;;;;;;;;;;;14.01;65.44;100976.41;4974820;28;19918;-80
2022/12/05 06:37:29;;;;;;;;;;;;;;;13.47;64.94;100989.88;4969415;28;19922;-80
2022/12/05 06:40:14;;;;;;;;;;;;;;;13.12;65.72;101000.09;4968524;28;20370;-79
2022/12/05 06:42:59;;;;;;;;;;;;;;;12.94;66.30;100995.78;4972491;28;19918;-79
2022/12/05 06:45:44;;;;;;;;;;;;;;;12.58;67.86;100993.41;4968643;28;19922;-79
2022/12/05 06:48:33;;;;;;;;;;;;;;;13.08;70.13;100995.59;4980442;28;20431;-79
2022/12/05 06:51:19;;;;;;;;;;;;;;;13.51;69.52;101007.19;4983021;28;20382;-79
2022/12/05 06:54:03;;;;;;;;;;;;;;;13.15;65.75;101002.22;4968408;28;19918;-79
2022/12/05 06:56:48;;;;;;;;;;;;;;;13.44;68.43;101001.47;4969709;28;19922;-80
2022/12/05 06:59:32;;;;;;;;;;;;;;;12.92;66.09;101002.69;4980482;28;20307;-79
2022/12/05 07:02:16;;;;;;;;;;;;;;;12.84;68.28;101005.13;4967181;28;19918;-79
2022/12/05 07:05:01;;;;;;;;;;;;;;;12.66;67.68;101008.16;4970809;28;19930;-79
2022/12/05 07:07:45;;;;;;;;;;;;;;;12.47;67.24;100985.88;4983873;28;19917;-79
2022/12/05 07:10:30;;;;;;;;;;;;;;;12.31;68.83;100999.19;4979615;28;19918;-79
2022/12/05 07:13:14;;;;;;;;;;;;;;;12.33;72.06;100999.69;4972819;28;19918;-79
2022/12/05 07:15:59;;;;;;;;;;;;;;;12.60;68.39;100996.63;4971860;28;19918;-79
2022/12/05 07:18:43;;;;;;;;;;;;;;;13.08;68.98;101006.50;4976062;28;19918;-79
2022/12/05 07:21:27;;;;;;;;;;;;;;;13.31;66.76;101002.47;4981009;28;19917;-80
2022/12/05 07:24:12;;;;;;;;;;;;;;;13.58;65.71;100999.31;4971166;28;19927;-80
2022/12/05 07:26:56;;;;;;;;;;;;;;;14.19;67.01;100997.03;4975567;28;20295;-79
2022/12/05 07:29:41;;;;;;;;;;;;;;;14.59;64.83;100999.34;4975760;28;19918;-79
2022/12/05 07:32:25;;;;;;;;;;;;;;;14.20;64.15;101001.38;4971246;28;19918;-78
2022/12/05 07:35:09;;;;;;;;;;;;;;;14.02;64.96;101013.53;4974447;28;19918;-79
2022/12/05 07:37:54;;;;;;;;;;;;;;;13.84;64.27;101006.59;4966710;28;19918;-79
2022/12/05 07:40:38;;;;;;;;;;;;;;;13.20;65.96;101009.41;4972319;28;19937;-79
2022/12/05 07:43:23;;;;;;;;;;;;;;;12.70;68.16;101006.41;4973012;28;19918;-79
2022/12/05 07:46:10;;;;;;;;;;;;;;;12.66;69.14;101000.78;4974175;28;19925;-78
2022/12/05 07:48:55;;;;;;;;;;;;;;;13.40;70.66;101005.97;4970784;28;19918;-79
2022/12/05 07:51:40;;;;;;;;;;;;;;;13.95;68.31;101008.63;4963628;28;19922;-78
2022/12/05 07:54:24;;;;;;;;;;;;;;;14.19;65.80;101009.91;4967797;28;19923;-79
2022/12/05 07:57:08;;;;;;;;;;;;;;;13.83;64.52;101015.91;4968553;28;19921;-79
2022/12/05 07:59:53;;;;;;;;;;;;;;;13.41;66.62;101015.75;4966862;28;19923;-79
2022/12/05 08:02:37;;;;;;;;;;;;;;;13.24;66.88;101018.56;4965146;28;20387;-79
2022/12/05 08:05:22;;;;;;;;;;;;;;;12.88;67.73;101021.66;4976392;28;19923;-78
2022/12/05 08:08:06;;;;;;;;;;;;;;;12.91;67.92;101023.72;4976263;28;19918;-78
2022/12/05 08:10:51;;;;;;;;;;;;;;;12.72;68.68;101026.00;4986181;28;19918;-78
2022/12/05 08:13:35;;;;;;;;;;;;;;;12.70;69.50;101030.94;4975932;28;19918;-78
2022/12/05 08:16:21;;;;;;;;;;;;;;;12.61;69.83;101032.88;4976190;28;19926;-77
2022/12/05 08:19:07;;;;;;;;;;;;;;;12.66;69.48;101022.63;4976288;28;20307;-78
2022/12/05 08:21:53;;;;;;;;;;;;;;;12.92;68.61;101029.97;4975765;28;19918;-79
2022/12/05 08:24:38;;;;;;;;;;;;;;;13.02;69.13;101029.66;4975881;28;19922;-78
2022/12/05 08:27:22;;;;;;;;;;;;;;;13.08;68.67;101023.69;4976046;28;19918;-77
2022/12/05 08:30:07;;;;;;;;;;;;;;;13.20;69.30;101023.06;4974816;28;19918;-78
2022/12/05 08:32:52;;;;;;;;;;;;;;;12.93;69.24;101026.94;4974793;28;19926;-78
2022/12/05 08:35:36;;;;;;;;;;;;;;;12.80;69.92;101027.91;4976111;28;20387;-79
2022/12/05 08:38:21;;;;;;;;;;;;;;;12.77;69.92;101012.19;4975994;28;19918;-78
2022/12/05 08:41:07;;;;;;;;;;;;;;;12.67;70.43;101017.97;4975706;28;19918;-79
2022/12/05 08:43:51;;;;;;;;;;;;;;;12.60;70.54;101018.44;4977549;28;19918;-79
2022/12/05 08:46:37;;;;;;;;;;;;;;;12.52;71.58;101021.19;4976617;28;19918;-79
2022/12/05 08:49:22;;;;;;;;;;;;;;;12.54;72.00;101027.13;4978724;28;19918;-79
2022/12/05 08:52:06;;;;;;;;;;;;;;;12.57;72.44;101021.00;4978853;28;20303;-79
2022/12/05 08:54:51;;;;;;;;;;;;;;;12.66;72.34;101028.06;4969485;28;19918;-79
2022/12/05 08:57:35;;;;;;;;;;;;;;;12.60;72.20;101032.06;4975425;28;20319;-79
2022/12/05 09:00:19;;;;;;;;;;;;;;;12.75;72.15;101036.25;4975482;28;19922;-79
2022/12/05 09:03:04;;;;;;;;;;;;;;;12.72;72.12;101039.63;4977324;28;19918;-79
2022/12/05 09:05:48;;;;;;;;;;;;;;;12.58;72.25;101031.63;4975674;28;19922;-78
2022/12/05 09:08:32;;;;;;;;;;;;;;;12.63;71.84;101036.91;4975357;28;19918;-79
2022/12/05 09:11:18;;;;;;;;;;;;;;;13.40;72.29;101025.09;4978438;28;19918;-79
2022/12/05 09:14:04;;;;;;;;;;;;;;;13.20;69.84;101036.72;4969360;28;19918;-79
2022/12/05 09:16:48;;;;;;;;;;;;;;;12.95;70.88;101041.06;4968749;28;19921;-79
2022/12/05 09:19:33;;;;;;;;;;;;;;;12.85;70.99;101038.66;4970458;28;20008;-79
2022/12/05 09:22:17;;;;;;;;;;;;;;;12.76;71.88;101044.13;4971700;28;20380;-79
2022/12/05 09:25:02;;;;;;;;;;;;;;;12.73;72.18;101035.78;4962744;28;20295;-78
2022/12/05 09:27:46;;;;;;;;;;;;;;;12.78;71.86;101043.81;4969151;28;19917;-78
2022/12/05 09:30:32;;;;;;;;;;;;;;;12.70;72.56;101039.94;4971291;28;20379;-79
2022/12/05 09:33:16;;;;;;;;;;;;;;;12.69;72.90;101032.91;4991449;23;19918;-77
2022/12/05 09:36:02;;;;;;;;;;;;;;;12.65;72.60;101026.47;4973816;28;19926;-77
2022/12/05 09:38:46;;;;;;;;;;;;;;;12.51;73.05;101012.19;4969212;28;19919;-79
2022/12/05 09:44:50;;;;;;;;;;;;;;;12.76;72.70;100995.00;4963019;28;20302;-80
2022/12/05 09:47:45;;;;;;;;;;;;;;;12.90;72.95;100999.50;4972182;28;19918;-79
2022/12/05 09:50:32;;;;;;;;;;;;;;;13.67;71.71;101002.00;4974902;28;20376;-79
2022/12/05 09:53:23;;;;;;;;;;;;;;;14.16;70.37;100996.91;4975162;28;19917;-79
2022/12/05 09:56:07;;;;;;;;;;;;;;;14.23;67.09;100987.03;4977846;28;20307;-81
2022/12/05 09:58:52;;;;;;;;;;;;;;;14.14;67.96;100991.75;4978435;28;19917;-81
2022/12/05 10:01:44;;;;;;;;;;;;;;;14.60;67.81;100999.00;4962546;28;19918;-79
2022/12/05 10:04:48;;;;;;;;;;;;;;;14.95;66.75;101000.28;4965202;28;19921;-79
2022/12/05 10:07:32;;;;;;;;;;;;;;;15.20;66.22;100994.88;4968286;28;19918;-79
2022/12/05 10:10:35;;;;;;;;;;;;;;;15.36;65.46;100996.63;4970971;28;19918;-80
2022/12/05 10:13:39;;;;;;;;;;;;;;;15.04;65.57;100996.66;4972626;28;19922;-85
2022/12/05 10:16:26;;;;;;;;;;;;;;;15.33;65.33;101002.00;4971633;28;19918;-79
2022/12/05 10:19:14;;;;;;;;;;;;;;;15.56;64.92;101005.94;4969078;28;19919;-81
2022/12/05 10:22:22;;;;;;;;;;;;;;;15.66;63.48;101012.91;4969069;28;19918;-81
2022/12/05 10:25:09;;;;;;;;;;;;;;;15.10;63.77;101009.81;4974409;28;19922;-83
2022/12/05 10:27:59;;;;;;;;;;;;;;;14.57;65.08;101009.84;4966042;28;20394;-83
2022/12/05 10:30:46;;;;;;;;;;;;;;;14.36;65.53;100996.97;4965933;28;19918;-80
2022/12/05 10:33:35;;;;;;;;;;;;;;;14.05;66.97;100996.50;4959604;28;19926;-82
2022/12/05 10:36:19;;;;;;;;;;;;;;;13.75;69.28;100995.69;4966485;28;19918;-82
2022/12/05 10:39:03;;;;;;;;;;;;;;;13.73;68.98;100986.22;4961020;28;19918;-82
2022/12/05 10:41:48;;;;;;;;;;;;;;;13.60;69.29;100986.13;4966163;28;19918;-82
2022/12/05 10:44:33;;;;;;;;;;;;;;;13.60;70.20;100975.19;4972619;28;19922;-82
2022/12/05 10:47:17;;;;;;;;;;;;;;;13.75;69.69;100978.50;4974411;28;19918;-82
2022/12/05 10:50:06;;;;;;;;;;;;;;;13.59;70.13;100979.06;4970585;28;19918;-83
2022/12/05 10:52:52;;;;;;;;;;;;;;;13.57;70.36;100970.38;4965590;28;19922;-82
2022/12/05 10:55:41;;;;;;;;;;;;;;;13.45;70.63;100955.81;4960839;28;19918;-80
2022/12/05 10:58:27;;;;;;;;;;;;;;;13.53;70.87;100944.84;4961168;28;19918;-80
2022/12/05 11:01:14;;;;;;;;;;;;;;;13.61;70.89;100940.47;4966255;28;19917;-80
2022/12/05 11:04:00;;;;;;;;;;;;;;;14.13;70.95;100924.53;4957598;28;19918;-80
2022/12/05 11:06:57;;;;;;;;;;;;;;;14.35;69.01;100932.41;4974401;28;19922;-80
2022/12/05 11:09:45;;;;;;;;;;;;;;;14.29;68.60;100932.91;4968167;28;20406;-79
2022/12/05 11:12:34;;;;;;;;;;;;;;;14.02;69.65;100920.56;4966817;28;20105;-80
2022/12/05 11:15:24;;;;;;;;;;;;;;;14.08;68.92;100916.50;4968678;28;19918;-80
2022/12/05 11:18:27;;;;;;;;;;;;;;;13.88;70.22;100901.72;4965984;28;19918;-80
2022/12/05 11:21:13;;;;;;;;;;;;;;;13.73;70.84;100915.97;4973806;28;19939;-81
2022/12/05 11:24:17;;;;;;;;;;;;;;;13.71;71.03;100916.28;4952122;28;19922;-80
2022/12/05 11:27:14;;;;;;;;;;;;;;;13.64;70.90;100915.22;4970816;28;19922;-80
2022/12/05 11:30:11;;;;;;;;;;;;;;;13.73;70.88;100906.97;4973599;28;19918;-80
2022/12/05 11:33:19;;;;;;;;;;;;;;;13.78;70.73;100912.22;4969581;28;20391;-81
2022/12/05 11:36:17;;;;;;;;;;;;;;;13.73;71.28;100918.69;4969370;28;19918;-81
2022/12/05 11:39:02;;;;;;;;;;;;;;;13.67;72.21;100904.41;4965596;28;19918;-79
2022/12/05 11:41:46;;;;;;;;;;;;;;;13.64;72.69;100909.75;4966363;28;19919;-80
2022/12/05 11:44:49;;;;;;;;;;;;;;;13.85;72.38;100904.31;4956756;28;19923;-81
2022/12/05 11:47:50;;;;;;;;;;;;;;;13.77;71.28;100902.41;4971913;28;19919;-80
2022/12/05 11:50:38;;;;;;;;;;;;;;;13.71;72.13;100893.66;4973318;28;19918;-82
2022/12/05 11:53:41;;;;;;;;;;;;;;;13.78;72.19;100890.38;4977816;28;19918;-80
2022/12/05 11:56:34;;;;;;;;;;;;;;;13.70;71.69;100875.63;4965326;28;19918;-80
2022/12/05 11:59:47;;;;;;;;;;;;;;;13.97;71.51;100879.75;4965428;28;19918;-81
2022/12/05 12:02:35;;;;;;;;;;;;;;;13.95;70.79;100882.03;4973222;28;19918;-81
2022/12/05 12:05:34;;;;;;;;;;;;;;;13.85;71.25;100879.72;4951557;28;19923;-80
2022/12/05 12:08:23;;;;;;;;;;;;;;;13.84;70.12;100880.84;4950898;28;20303;-81
2022/12/05 12:11:09;;;;;;;;;;;;;;;13.68;71.99;100867.75;4976801;28;19918;-82
2022/12/05 12:14:01;;;;;;;;;;;;;;;13.74;72.93;100871.09;4976711;28;19922;-82
2022/12/05 12:17:05;;;;;;;;;;;;;;;13.84;72.35;100858.97;4968515;28;19917;-80
2022/12/05 12:19:52;;;;;;;;;;;;;;;13.96;72.84;100862.59;4971984;28;19918;-80
2022/12/05 12:22:55;;;;;;;;;;;;;;;14.04;70.99;100866.38;4980249;28;19918;-81
2022/12/05 12:25:43;;;;;;;;;;;;;;;13.98;71.53;100859.50;4975652;28;19922;-81
2022/12/05 12:28:47;;;;;;;;;;;;;;;13.89;71.71;100861.50;4966231;28;19922;-82
2022/12/05 12:31:34;;;;;;;;;;;;;;;13.97;71.81;100857.88;4962915;28;19922;-80
2022/12/05 12:34:19;;;;;;;;;;;;;;;14.24;70.12;100856.53;4976238;28;19918;-81
2022/12/05 12:37:03;;;;;;;;;;;;;;;14.24;69.63;100860.06;4967250;28;20303;-80
2022/12/05 12:39:55;;;;;;;;;;;;;;;14.55;71.80;100857.72;4965235;28;19918;-81
2022/12/05 12:42:39;;;;;;;;;;;;;;;14.58;68.87;100856.22;4949140;28;19918;-81
2022/12/05 12:45:39;;;;;;;;;;;;;;;14.27;68.72;100843.00;4972432;28;19922;-80
2022/12/05 12:48:34;;;;;;;;;;;;;;;14.19;69.55;100843.06;4965846;28;19918;-82
2022/12/05 12:51:18;;;;;;;;;;;;;;;14.22;68.82;100840.44;4961932;28;19918;-79
2022/12/05 12:54:06;;;;;;;;;;;;;;;14.35;68.17;100841.31;4965335;28;19918;-79
2022/12/05 12:57:02;;;;;;;;;;;;;;;14.31;68.17;100837.66;4963293;28;19918;-79
2022/12/05 12:59:46;;;;;;;;;;;;;;;14.45;68.52;100841.72;4968285;28;20391;-80
2022/12/05 13:02:46;;;;;;;;;;;;;;;14.88;69.74;100833.00;4968523;28;19926;-79
2022/12/05 13:05:31;;;;;;;;;;;;;;;14.79;68.18;100834.25;4970251;28;19922;-79
2022/12/05 13:08:22;;;;;;;;;;;;;;;14.55;67.00;100841.28;4971045;28;20387;-82
2022/12/05 13:11:09;;;;;;;;;;;;;;;14.52;67.85;100841.97;4969773;28;19919;-80
2022/12/05 13:13:55;;;;;;;;;;;;;;;14.46;67.34;100837.03;4956253;28;20315;-81
2022/12/05 13:16:43;;;;;;;;;;;;;;;14.39;69.60;100837.59;4956667;28;19918;-80
2022/12/05 13:19:36;;;;;;;;;;;;;;;14.53;69.90;100831.81;4971580;28;19918;-79
2022/12/05 13:22:22;;;;;;;;;;;;;;;14.52;68.15;100835.69;4965024;28;19922;-82
2022/12/05 13:25:12;;;;;;;;;;;;;;;14.24;69.27;100849.13;4961731;28;20302;-81
2022/12/05 13:27:58;;;;;;;;;;;;;;;14.26;70.28;100844.13;4955977;28;19918;-80
2022/12/05 13:31:01;;;;;;;;;;;;;;;14.27;70.71;100850.41;4973853;28;19918;-82
2022/12/05 13:33:47;;;;;;;;;;;;;;;15.37;70.56;100866.69;4963770;28;19926;-80
2022/12/05 13:43:04;;;;;;;;;;;;;;;14.89;67.33;100839.28;4967837;28;19921;-82
2022/12/05 13:46:08;;;;;;;;;;;;;;;14.60;67.10;100832.06;4965408;28;19922;-81
2022/12/05 13:48:59;;;;;;;;;;;;;;;14.47;68.55;100823.03;4969786;28;19918;-80
2022/12/05 13:51:44;;;;;;;;;;;;;;;14.46;68.77;100818.69;4974675;28;20295;-81
2022/12/05 13:54:30;;;;;;;;;;;;;;;14.19;69.74;100812.97;4974899;28;19918;-81
2022/12/05 13:57:46;;;;;;;;;;;;;;;14.13;70.80;100818.66;4975061;28;19918;-81
2022/12/05 14:00:33;;;;;;;;;;;;;;;14.01;71.57;100826.03;4966769;28;19922;-83
2022/12/05 14:03:21;;;;;;;;;;;;;;;13.88;71.41;100818.91;4967223;28;19934;-80
2022/12/05 14:06:05;;;;;;;;;;;;;;;13.84;71.72;100828.91;4976067;28;19922;-82
2022/12/05 14:08:52;;;;;;;;;;;;;;;13.88;71.78;100838.03;4961608;28;19918;-79
2022/12/05 14:11:36;;;;;;;;;;;;;;;13.83;72.02;100844.50;4967471;28;19918;-79
2022/12/05 14:14:39;;;;;;;;;;;;;;;13.82;72.92;100842.09;4962573;28;19922;-81
2022/12/05 14:17:32;;;;;;;;;;;;;;;13.88;72.59;100838.03;4980926;28;19918;-82
2022/12/05 14:20:36;;;;;;;;;;;;;;;13.86;72.15;100829.38;4962446;28;19918;-81
2022/12/05 14:23:36;;;;;;;;;;;;;;;14.06;73.72;100825.81;4965095;28;19918;-81
2022/12/05 14:26:39;;;;;;;;;;;;;;;14.93;73.68;100818.31;4955757;28;20468;-81
2022/12/05 14:29:35;;;;;;;;;;;;;;;15.47;66.70;100820.78;4980274;28;19918;-81
2022/12/05 14:32:21;;;;;;;;;;;;;;;14.73;69.10;100813.72;4974336;28;19918;-80
2022/12/05 14:35:12;;;;;;;;;;;;;;;14.44;69.60;100818.22;4960818;28;19918;-82
2022/12/05 14:38:04;;;;;;;;;;;;;;;14.20;70.42;100809.91;4984617;28;19918;-83